KJLN

Joplin Regional Airport

Airport
ICAO code
KJLN
Summary
ICAO Region
NAM
ICAO Territory
Location

Joplin, Missouri,

Coordinates
37° 8' 55" N , 94° 29' 57" W
KCC
Metar
Observation
KJLN 070953Z AUTO 02007KT 10SM CLR 14/10 A3028 RMK AO2 SLP247 T01390100 PWINO
Station
Joplin, Joplin Regional Airport
Date/Time
2022-10-07 09:53:00
Wind direction
20°
Wind speed
07 kts
Lowest cloud amount
n/a
Temperature
13.9°C
Dew point
10°C
Humidity
77%
Weather condition
n/a

Description

Joplin Regional Airport is a public use airport located 7 km north of the central business district of Joplin, in Jasper County, Missouri.

Climatology

Humid “subtropical” climate (Köppen climate classification Cfa) - characterized by hot, humid summers and cool winters. Significant amounts of precipitation occur in all seasons in most areas. Winter rainfall (and sometimes snowfall) is associated with large storms that the westerlies steer from west to east. Most summer rainfall occurs during thunderstorms.

Airport map

Aerial View

SKYbrary Partners:

Safety knowledge contributed by: